Uacc Ibn Al Haitham — 9HVB9 — position and weather

sailwx.info

Track history (hours):
 
Tides and Currents Weather Stations Pressure Air Temp Water Temp Dewpoint Dewpoint Depression Visibility Wind Speed Wind Dir Waves Ship Positions

Uacc Ibn Al Haitham

Last reported at 2018-May-25 01:20 UTC. Time now 2018-May-25 22:45 UTC.
Position N 35°25' E 139°47'.

Length 228 m; draft 12.6 m.

Type: Tanker. MMSI: 249580000.

Date/timePositionNaut miles runAvg speedWind from/ knotsBaromVisibWave heightAir tempDewpointWater temp
2018-May-25 01:20N 35°25' E 139°47'412.3
2018-May-25 00:59N 35°22' E 139°45'511.0
2018-May-25 00:30N 35°16' E 139°46'611.0
2018-May-25 00:00N 35°11' E 139°47'4 7.3
2018-May-24 23:30N 35°07' E 139°46'3 6.4
2018-May-24 23:00N 35°04' E 139°44'4 8.0
2018-May-24 22:30N 35°01' E 139°41'4 7.2
2018-May-24 22:00N 34°59' E 139°38'2 4.4
2018-May-24 21:30N 34°58' E 139°35'  
2018-May-15 13:56N 01°21' E 104°24'711.0
2018-May-15 13:20N 01°17' E 104°19'410.6
2018-May-15 12:58N 01°17' E 104°15'510.1
2018-May-15 12:27N 01°16' E 104°10'5 9.3
2018-May-15 11:52N 01°15' E 104°05'3 8.8
2018-May-15 11:30N 01°15' E 104°02'5 9.0
2018-May-15 10:59N 01°15' E 103°57'2 4.5
2018-May-15 10:30N 01°15' E 103°55'0 0.1
2018-May-15 07:56N 01°15' E 103°55'0 0.1
2018-May-15 07:08N 01°15' E 103°55'0 0.0
2018-May-15 06:08N 01°15' E 103°55'0 0.2
2018-May-15 05:53N 01°15' E 103°55'0 0.1
2018-May-15 05:23N 01°15' E 103°55'0 0.1
2018-May-15 04:53N 01°15' E 103°55'0 0.0
2018-May-15 04:16N 01°15' E 103°55'0 0.0
2018-May-15 03:55N 01°15' E 103°55'0 0.0
2018-May-15 03:29N 01°15' E 103°55'0 0.0
2018-May-15 01:59N 01°15' E 103°55'0 0.3
2018-May-15 01:28N 01°15' E 103°55'  
Track history (hours):
 
Tides and Currents Weather Stations Pressure Air Temp Water Temp Dewpoint Dewpoint Depression Visibility Wind Speed Wind Dir Waves Ship Positions

Uacc Ibn Al Haitham

Last reported at 2018-May-25 01:20 UTC. Time now 2018-May-25 22:45 UTC.
Position N 35°25' E 139°47'.

Length 228 m; draft 12.6 m.

Type: Tanker. MMSI: 249580000.

Date/timePositionNaut miles runAvg speedWind from/ knotsBaromVisibWave heightAir tempDewpointWater temp
2018-May-25 01:20N 35°25' E 139°47'412.3
2018-May-25 00:59N 35°22' E 139°45'511.0
2018-May-25 00:30N 35°16' E 139°46'611.0
2018-May-25 00:00N 35°11' E 139°47'4 7.3
2018-May-24 23:30N 35°07' E 139°46'3 6.4
2018-May-24 23:00N 35°04' E 139°44'4 8.0
2018-May-24 22:30N 35°01' E 139°41'4 7.2
2018-May-24 22:00N 34°59' E 139°38'2 4.4
2018-May-24 21:30N 34°58' E 139°35'  
2018-May-15 13:56N 01°21' E 104°24'711.0
2018-May-15 13:20N 01°17' E 104°19'410.6
2018-May-15 12:58N 01°17' E 104°15'510.1
2018-May-15 12:27N 01°16' E 104°10'5 9.3
2018-May-15 11:52N 01°15' E 104°05'3 8.8
2018-May-15 11:30N 01°15' E 104°02'5 9.0
2018-May-15 10:59N 01°15' E 103°57'2 4.5
2018-May-15 10:30N 01°15' E 103°55'0 0.1
2018-May-15 07:56N 01°15' E 103°55'0 0.1
2018-May-15 07:08N 01°15' E 103°55'0 0.0
2018-May-15 06:08N 01°15' E 103°55'0 0.2
2018-May-15 05:53N 01°15' E 103°55'0 0.1
2018-May-15 05:23N 01°15' E 103°55'0 0.1
2018-May-15 04:53N 01°15' E 103°55'0 0.0
2018-May-15 04:16N 01°15' E 103°55'0 0.0
2018-May-15 03:55N 01°15' E 103°55'0 0.0
2018-May-15 03:29N 01°15' E 103°55'0 0.0
2018-May-15 01:59N 01°15' E 103°55'0 0.3
2018-May-15 01:28N 01°15' E 103°55'  

Dump ship's entire track history